Time;durP1;ratioP1;P1;durP2;ratioP2;P2;SDS_P1;SDS_P2;PMS_P1;PMS_P2;Temp;Humidity;BMP_temperature;BMP_pressure;BME280_temperature;BME280_humidity;BME280_pressure;Samples;Min_cycle;Max_cycle;Signal;HPM_P1;HPM_P2
2023/05/30 00:00:14;;;;;;;5.22;3.80;;;22.50;46.00;;;;;;4999976;28;20619;-78
2023/05/30 00:02:42;;;;;;;4.05;3.55;;;22.40;46.10;;;;;;4999830;28;20531;-78
2023/05/30 00:05:12;;;;;;;4.97;3.53;;;22.40;46.00;;;;;;4999600;28;20225;-78
2023/05/30 00:07:39;;;;;;;3.53;3.22;;;22.40;46.00;;;;;;4999427;28;20609;-78
2023/05/30 00:10:07;;;;;;;3.70;3.40;;;22.40;45.90;;;;;;4983488;28;20207;-78
2023/05/30 00:12:35;;;;;;;3.70;3.40;;;22.40;46.40;;;;;;4999310;28;20220;-78
2023/05/30 00:15:02;;;;;;;4.32;3.63;;;22.40;46.20;;;;;;4999211;28;20300;-78
2023/05/30 00:17:32;;;;;;;3.80;3.50;;;22.40;46.40;;;;;;4997790;28;20255;-78
2023/05/30 00:19:59;;;;;;;4.53;3.78;;;22.30;46.20;;;;;;4999228;28;20200;-78
2023/05/30 00:22:28;;;;;;;4.65;3.08;;;22.30;46.20;;;;;;4999181;28;20569;-78
2023/05/30 00:24:59;;;;;;;4.45;3.55;;;22.30;46.30;;;;;;4999949;28;20578;-78
2023/05/30 00:27:27;;;;;;;4.05;3.65;;;22.30;46.30;;;;;;5017187;28;20208;-78
2023/05/30 00:29:53;;;;;;;4.35;3.30;;;22.30;46.30;;;;;;4983869;28;20196;-78
2023/05/30 00:32:21;;;;;;;3.65;3.25;;;22.30;46.40;;;;;;4999545;28;20193;-78
2023/05/30 00:34:48;;;;;;;3.97;3.38;;;22.30;46.50;;;;;;4999846;28;20200;-78
2023/05/30 00:37:15;;;;;;;4.00;3.50;;;22.20;46.30;;;;;;5039953;22;20286;-62
2023/05/30 00:39:44;;;;;;;3.45;3.15;;;22.20;46.50;;;;;;4997752;28;20226;-62
2023/05/30 00:42:12;;;;;;;3.50;3.20;;;22.20;46.40;;;;;;5023083;22;20609;-78
2023/05/30 00:44:39;;;;;;;3.85;3.53;;;22.20;46.30;;;;;;4965079;28;20208;-78
2023/05/30 00:47:06;;;;;;;6.07;3.72;;;22.20;46.30;;;;;;4983135;28;20221;-78
2023/05/30 00:49:34;;;;;;;3.92;3.33;;;22.20;46.50;;;;;;5003364;28;20211;-78
2023/05/30 00:52:00;;;;;;;3.47;3.17;;;22.20;46.70;;;;;;4998642;28;20197;-78
2023/05/30 00:54:28;;;;;;;4.10;3.67;;;22.20;46.60;;;;;;4980192;28;20276;-78
2023/05/30 00:56:57;;;;;;;3.78;3.35;;;22.20;46.50;;;;;;4979700;28;20216;-78
2023/05/30 00:59:25;;;;;;;3.47;3.17;;;22.10;46.40;;;;;;4979622;28;20288;-78
2023/05/30 01:01:52;;;;;;;4.00;3.40;;;22.10;46.40;;;;;;4979985;28;20201;-78
2023/05/30 01:04:19;;;;;;;4.10;3.70;;;22.10;46.70;;;;;;4979095;28;20193;-78
2023/05/30 01:06:47;;;;;;;3.53;3.22;;;22.10;46.60;;;;;;4963343;28;20224;-78
2023/05/30 01:09:14;;;;;;;3.40;3.10;;;22.10;46.60;;;;;;4979032;28;20206;-78
2023/05/30 01:11:47;;;;;;;3.50;3.20;;;22.10;46.80;;;;;;4963993;28;20202;-78
2023/05/30 01:14:18;;;;;;;3.63;2.90;;;22.10;46.30;;;;;;4979958;28;20220;-78
2023/05/30 01:16:53;;;;;;;3.40;3.10;;;22.10;46.60;;;;;;4979663;28;20279;-78
2023/05/30 01:19:33;;;;;;;3.70;3.40;;;22.10;46.40;;;;;;4979502;28;20566;-78
2023/05/30 01:22:06;;;;;;;3.88;3.17;;;22.00;46.30;;;;;;4979627;28;20224;-79
2023/05/30 01:24:36;;;;;;;4.05;3.65;;;22.00;46.40;;;;;;4979580;28;20190;-79
2023/05/30 01:27:07;;;;;;;4.07;3.17;;;22.00;46.00;;;;;;4979465;28;20217;-79
2023/05/30 01:29:35;;;;;;;3.35;3.05;;;22.00;46.20;;;;;;4979415;28;20232;-79
2023/05/30 01:32:05;;;;;;;4.22;3.30;;;22.00;46.00;;;;;;4963523;28;20296;-79
2023/05/30 01:34:33;;;;;;;4.22;3.17;;;22.00;45.90;;;;;;4979459;28;20217;-79
2023/05/30 01:37:00;;;;;;;3.92;3.33;;;22.00;46.40;;;;;;4979908;28;20214;-79
2023/05/30 01:39:27;;;;;;;3.50;3.20;;;21.90;46.20;;;;;;4979903;28;20651;-79
2023/05/30 01:41:55;;;;;;;3.63;3.20;;;21.90;46.10;;;;;;4997478;28;20726;-79
2023/05/30 01:44:26;;;;;;;3.60;3.30;;;21.90;46.10;;;;;;4979335;28;20201;-79
2023/05/30 01:46:59;;;;;;;3.65;3.33;;;21.90;46.30;;;;;;4997884;28;20209;-79
2023/05/30 01:49:31;;;;;;;3.83;3.22;;;21.90;46.10;;;;;;4978480;28;20272;-79
2023/05/30 01:51:59;;;;;;;3.75;3.35;;;21.90;46.20;;;;;;4978640;28;20555;-79
2023/05/30 01:54:28;;;;;;;4.13;3.50;;;21.90;46.20;;;;;;4979135;28;20209;-79
2023/05/30 01:56:56;;;;;;;3.40;3.10;;;21.80;46.40;;;;;;4978658;28;20268;-79
2023/05/30 01:59:23;;;;;;;4.10;3.42;;;21.80;46.30;;;;;;4978779;28;20197;-79
2023/05/30 02:01:50;;;;;;;3.70;3.40;;;21.80;46.60;;;;;;4963584;28;20729;-79
2023/05/30 02:04:19;;;;;;;5.10;3.70;;;21.80;46.50;;;;;;4979323;28;20197;-79
2023/05/30 02:06:46;;;;;;;4.10;3.55;;;21.80;46.70;;;;;;4979269;28;20232;-79
2023/05/30 02:09:13;;;;;;;4.03;2.97;;;21.80;46.50;;;;;;4964097;28;20193;-79
2023/05/30 02:11:42;;;;;;;3.75;3.38;;;21.80;46.50;;;;;;4979843;28;20201;-79
2023/05/30 02:14:09;;;;;;;3.60;3.30;;;21.70;46.50;;;;;;4979343;28;20311;-79
2023/05/30 02:16:36;;;;;;;3.58;3.28;;;21.80;46.80;;;;;;4979509;28;20221;-79
2023/05/30 02:19:04;;;;;;;4.00;3.60;;;21.70;46.80;;;;;;4979759;28;20216;-79
2023/05/30 02:21:33;;;;;;;3.42;3.13;;;21.70;47.00;;;;;;4995684;28;20529;-79
2023/05/30 02:24:00;;;;;;;4.28;3.42;;;21.70;46.70;;;;;;4979147;28;20198;-79
2023/05/30 02:26:28;;;;;;;3.90;3.05;;;21.70;46.60;;;;;;4978731;28;20232;-79
2023/05/30 02:28:55;;;;;;;3.40;3.10;;;21.70;46.70;;;;;;4983087;28;20648;-79
2023/05/30 02:31:24;;;;;;;3.75;3.45;;;21.70;47.10;;;;;;4983139;28;20255;-79
2023/05/30 02:33:51;;;;;;;3.92;3.33;;;21.60;46.70;;;;;;4981567;28;20704;-79
2023/05/30 02:36:18;;;;;;;4.55;3.40;;;21.70;46.90;;;;;;4964912;28;20236;-80
2023/05/30 02:38:47;;;;;;;3.63;3.28;;;21.70;46.80;;;;;;4979889;28;20208;-80
2023/05/30 02:41:14;;;;;;;3.92;3.53;;;21.60;47.10;;;;;;4979301;28;20204;-80
2023/05/30 02:43:41;;;;;;;3.83;3.40;;;21.60;46.80;;;;;;4979698;28;20212;-79
2023/05/30 02:46:09;;;;;;;2.88;2.65;;;21.60;46.80;;;;;;4980059;28;20221;-79
2023/05/30 02:48:40;;;;;;;3.63;3.33;;;21.60;47.00;;;;;;4963363;28;20284;-79
2023/05/30 02:51:07;;;;;;;3.42;3.13;;;21.60;46.80;;;;;;4963479;28;20571;-79
2023/05/30 02:53:35;;;;;;;3.38;3.08;;;21.60;47.10;;;;;;4978728;28;20336;-79
2023/05/30 02:56:05;;;;;;;3.70;3.40;;;21.60;46.90;;;;;;4978709;28;20328;-79
2023/05/30 02:58:41;;;;;;;3.38;3.08;;;21.50;46.90;;;;;;4996786;28;20221;-79
2023/05/30 03:01:29;;;;;;;3.65;3.30;;;21.60;46.90;;;;;;4971857;28;20209;-79
2023/05/30 03:03:56;;;;;;;3.97;3.38;;;21.50;47.00;;;;;;4979915;28;20198;-79
2023/05/30 03:06:31;;;;;;;3.20;2.90;;;21.50;46.90;;;;;;4978568;28;20289;-79
2023/05/30 03:09:15;;;;;;;3.92;3.15;;;21.50;47.00;;;;;;4977817;28;20192;-81
2023/05/30 03:11:44;;;;;;;3.17;2.97;;;21.50;47.30;;;;;;4977541;28;20248;-79
2023/05/30 03:14:11;;;;;;;3.65;3.35;;;21.50;47.40;;;;;;4977289;28;20213;-79
2023/05/30 03:16:39;;;;;;;4.30;3.40;;;21.50;47.40;;;;;;4977204;28;20304;-78
2023/05/30 03:19:08;;;;;;;4.07;3.30;;;21.50;47.40;;;;;;4977676;28;20656;-78
2023/05/30 03:21:37;;;;;;;3.75;3.28;;;21.50;47.20;;;;;;4978081;28;20197;-78
2023/05/30 03:24:06;;;;;;;4.20;3.38;;;21.50;47.40;;;;;;4977820;28;20189;-78
2023/05/30 03:26:40;;;;;;;3.42;3.13;;;21.50;47.50;;;;;;4978941;28;20228;-78
2023/05/30 03:29:09;;;;;;;4.53;3.33;;;21.50;47.40;;;;;;4979052;28;20682;-78
2023/05/30 03:31:36;;;;;;;3.45;3.13;;;21.60;47.30;;;;;;4984040;28;20206;-78
2023/05/30 03:34:04;;;;;;;3.72;3.38;;;21.60;47.20;;;;;;4987183;28;20249;-78
2023/05/30 03:36:31;;;;;;;3.60;2.97;;;21.60;47.10;;;;;;4988758;28;20222;-78
2023/05/30 03:38:59;;;;;;;4.60;3.45;;;21.60;47.10;;;;;;4969527;28;20265;-79
2023/05/30 03:41:26;;;;;;;3.40;3.08;;;21.70;47.10;;;;;;4981026;28;20201;-79
2023/05/30 03:43:54;;;;;;;2.80;2.60;;;21.70;47.10;;;;;;4981274;28;20214;-79
2023/05/30 03:46:25;;;;;;;4.13;3.15;;;21.70;47.10;;;;;;4981667;28;20639;-79
2023/05/30 03:48:51;;;;;;;3.50;3.20;;;21.70;47.00;;;;;;4984385;28;20201;-79
2023/05/30 03:51:19;;;;;;;3.47;3.10;;;21.80;46.90;;;;;;4986625;28;20216;-79
2023/05/30 03:53:46;;;;;;;3.80;3.40;;;21.70;47.00;;;;;;4974806;28;20248;-79
2023/05/30 03:56:13;;;;;;;4.32;3.30;;;21.80;46.90;;;;;;4988336;28;20228;-79
2023/05/30 03:58:41;;;;;;;3.67;3.33;;;21.70;46.90;;;;;;5003318;28;20198;-79
2023/05/30 04:01:10;;;;;;;3.55;3.17;;;21.80;47.00;;;;;;4986193;28;20209;-79
2023/05/30 04:03:38;;;;;;;5.28;3.42;;;21.80;46.80;;;;;;4967346;28;20204;-78
2023/05/30 04:06:07;;;;;;;4.07;3.53;;;21.90;46.90;;;;;;4986622;28;20221;-77
2023/05/30 04:08:36;;;;;;;3.67;3.30;;;21.80;46.80;;;;;;4986329;28;20280;-77
2023/05/30 04:11:04;;;;;;;3.63;3.10;;;21.80;46.30;;;;;;4980455;28;20656;-77
2023/05/30 04:13:33;;;;;;;3.63;3.20;;;21.80;46.30;;;;;;4981373;28;20710;-78
2023/05/30 04:16:00;;;;;;;3.88;3.50;;;21.80;47.20;;;;;;4980221;28;20221;-78
2023/05/30 04:18:27;;;;;;;3.60;3.30;;;21.80;47.20;;;;;;4979998;28;20198;-78
2023/05/30 04:20:55;;;;;;;5.20;3.70;;;21.80;47.10;;;;;;4981043;28;20186;-78
2023/05/30 04:23:24;;;;;;;3.60;3.30;;;21.80;46.50;;;;;;4980395;28;20202;-78
2023/05/30 04:25:51;;;;;;;4.80;3.65;;;21.80;45.70;;;;;;4979790;28;20224;-78
2023/05/30 04:28:19;;;;;;;3.97;3.58;;;21.70;45.60;;;;;;4980022;28;20201;-78
2023/05/30 04:30:48;;;;;;;4.55;3.75;;;21.80;45.70;;;;;;4979915;28;20208;-77
2023/05/30 04:33:18;;;;;;;4.00;3.50;;;21.80;45.60;;;;;;4980768;28;20546;-78
2023/05/30 04:35:47;;;;;;;7.20;3.83;;;21.70;46.30;;;;;;4979926;28;20222;-78
2023/05/30 04:38:19;;;;;;;4.10;3.30;;;21.70;46.50;;;;;;4980003;28;20204;-78
2023/05/30 04:40:49;;;;;;;6.00;3.88;;;21.70;46.20;;;;;;4980476;28;20189;-78
2023/05/30 04:43:19;;;;;;;6.18;3.92;;;21.70;46.00;;;;;;4980719;28;20209;-78
2023/05/30 04:45:47;;;;;;;3.63;3.33;;;21.70;45.90;;;;;;4986792;28;20225;-78
2023/05/30 04:48:16;;;;;;;5.70;3.80;;;21.70;46.10;;;;;;4994332;28;20223;-78
2023/05/30 04:50:46;;;;;;;6.32;3.90;;;21.70;46.40;;;;;;4985374;28;20193;-78
2023/05/30 04:53:15;;;;;;;5.03;3.97;;;21.80;46.80;;;;;;4980406;28;20206;-77
2023/05/30 04:55:43;;;;;;;5.32;3.95;;;21.80;46.80;;;;;;4981869;28;20233;-78
2023/05/30 04:58:10;;;;;;;4.15;3.53;;;21.80;46.80;;;;;;4980807;28;20213;-78
2023/05/30 05:00:38;;;;;;;4.28;3.80;;;21.80;46.80;;;;;;4980377;28;20664;-78
2023/05/30 05:03:06;;;;;;;5.72;3.80;;;21.90;46.50;;;;;;4979488;28;20229;-78
2023/05/30 05:05:33;;;;;;;4.75;3.60;;;21.90;46.40;;;;;;4980318;28;20235;-78
2023/05/30 05:08:01;;;;;;;4.50;3.70;;;22.00;46.80;;;;;;4980206;28;20205;-80
2023/05/30 05:10:29;;;;;;;3.85;3.47;;;22.00;47.40;;;;;;4980999;28;20189;-79
2023/05/30 05:12:56;;;;;;;4.05;3.65;;;22.10;47.50;;;;;;4980177;28;20231;-78
2023/05/30 05:15:23;;;;;;;4.05;3.55;;;22.10;47.00;;;;;;4980525;28;20233;-77
2023/05/30 05:17:51;;;;;;;6.22;3.40;;;22.20;46.60;;;;;;4979981;28;20632;-77
2023/05/30 05:20:19;;;;;;;4.97;3.83;;;22.30;46.60;;;;;;4997157;28;20200;-77
2023/05/30 05:22:46;;;;;;;4.03;3.45;;;22.30;46.40;;;;;;4963867;28;20244;-77
2023/05/30 05:25:13;;;;;;;3.45;3.15;;;22.40;46.30;;;;;;4979415;28;20289;-77
2023/05/30 05:27:42;;;;;;;4.72;3.65;;;22.40;46.20;;;;;;4963312;28;20201;-77
2023/05/30 05:30:10;;;;;;;5.82;3.50;;;22.50;46.00;;;;;;4979426;28;20277;-77
2023/05/30 05:32:38;;;;;;;4.70;3.70;;;22.50;45.80;;;;;;4979974;28;20248;-77
2023/05/30 05:35:08;;;;;;;5.15;3.67;;;22.60;45.60;;;;;;4979118;28;20221;-77
2023/05/30 05:37:35;;;;;;;4.90;3.80;;;22.60;45.60;;;;;;4979748;28;20225;-78
2023/05/30 05:40:04;;;;;;;6.25;3.42;;;22.70;45.60;;;;;;4979889;28;20197;-78
2023/05/30 05:42:32;;;;;;;4.75;3.60;;;22.70;45.50;;;;;;4979581;28;20571;-79
2023/05/30 05:45:01;;;;;;;4.30;3.60;;;22.80;45.50;;;;;;4979228;28;20208;-78
2023/05/30 05:47:28;;;;;;;3.90;3.35;;;22.90;45.20;;;;;;4979110;28;20198;-79
2023/05/30 05:50:00;;;;;;;4.50;3.50;;;22.90;44.70;;;;;;4980057;28;20207;-79
2023/05/30 05:52:27;;;;;;;4.43;3.30;;;23.00;44.90;;;;;;4979311;28;20203;-79
2023/05/30 05:54:55;;;;;;;3.75;3.13;;;23.00;44.90;;;;;;4978480;28;20751;-79
2023/05/30 05:57:22;;;;;;;3.92;3.53;;;23.10;44.50;;;;;;4978509;28;20722;-79
2023/05/30 05:59:50;;;;;;;4.18;3.67;;;23.10;44.50;;;;;;4978851;28;20213;-79
2023/05/30 06:02:19;;;;;;;5.28;3.70;;;23.10;44.50;;;;;;4978457;28;20209;-78
2023/05/30 06:04:47;;;;;;;4.05;3.30;;;23.20;44.50;;;;;;4978270;28;20208;-78
2023/05/30 06:07:14;;;;;;;4.22;3.30;;;23.20;44.50;;;;;;4978317;28;20223;-78
2023/05/30 06:09:41;;;;;;;4.47;3.50;;;23.30;44.40;;;;;;4978162;28;20204;-78
2023/05/30 06:12:08;;;;;;;3.80;3.17;;;23.30;44.20;;;;;;4978396;28;20197;-78
2023/05/30 06:14:36;;;;;;;4.25;3.60;;;23.30;44.20;;;;;;4978724;28;20561;-79
2023/05/30 06:17:02;;;;;;;4.63;3.70;;;23.40;44.00;;;;;;4981251;28;20213;-79
2023/05/30 06:19:31;;;;;;;3.92;3.53;;;23.40;43.90;;;;;;4980055;28;20201;-79
2023/05/30 06:21:58;;;;;;;4.07;3.30;;;23.50;43.70;;;;;;4978587;28;20292;-79
2023/05/30 06:24:25;;;;;;;4.00;3.60;;;23.50;43.40;;;;;;4962493;28;20201;-79
2023/05/30 06:26:53;;;;;;;3.63;3.33;;;23.50;43.30;;;;;;4978500;28;20228;-79
2023/05/30 06:29:21;;;;;;;4.97;3.20;;;23.50;43.40;;;;;;4995520;28;20240;-79
2023/05/30 06:31:47;;;;;;;3.67;3.00;;;23.60;43.40;;;;;;4978330;28;20200;-79
2023/05/30 06:34:15;;;;;;;4.32;3.60;;;23.60;43.30;;;;;;4978716;28;20260;-79
2023/05/30 06:36:43;;;;;;;3.78;3.03;;;23.70;43.50;;;;;;5002381;22;20233;-78
2023/05/30 06:39:15;;;;;;;5.18;3.67;;;23.80;43.40;;;;;;4996555;28;20200;-78
2023/05/30 06:41:42;;;;;;;4.43;3.10;;;23.80;43.30;;;;;;5045425;22;20228;-77
2023/05/30 06:44:09;;;;;;;4.30;3.30;;;23.90;43.30;;;;;;4998077;28;20296;-78
2023/05/30 06:46:36;;;;;;;5.80;3.70;;;24.00;43.20;;;;;;4996961;28;20271;-78
2023/05/30 06:49:03;;;;;;;6.10;3.50;;;24.00;42.90;;;;;;4996885;28;20192;-78
2023/05/30 06:51:31;;;;;;;4.43;3.22;;;24.10;42.90;;;;;;4996995;28;20196;-78
2023/05/30 06:53:59;;;;;;;4.65;3.28;;;24.20;42.80;;;;;;4997946;28;20205;-78
2023/05/30 06:56:27;;;;;;;5.43;3.55;;;24.30;42.70;;;;;;4997127;28;20225;-78
2023/05/30 06:58:55;;;;;;;5.03;2.95;;;24.40;42.60;;;;;;4997472;28;20201;-78
2023/05/30 07:01:22;;;;;;;3.30;3.00;;;24.40;42.50;;;;;;4997639;28;20207;-78
2023/05/30 07:03:50;;;;;;;3.75;3.38;;;24.50;42.50;;;;;;4997920;28;20204;-78
2023/05/30 07:06:17;;;;;;;4.38;3.20;;;24.50;42.30;;;;;;4998011;28;20603;-79
2023/05/30 07:08:44;;;;;;;4.28;3.10;;;24.60;42.20;;;;;;4998853;28;20259;-79
2023/05/30 07:11:13;;;;;;;3.55;3.22;;;24.70;42.00;;;;;;4998841;28;20208;-79
2023/05/30 07:13:40;;;;;;;4.43;3.30;;;24.80;41.90;;;;;;4998682;28;20283;-79
2023/05/30 07:16:07;;;;;;;3.75;3.05;;;24.90;41.80;;;;;;5015883;28;20709;-79
2023/05/30 07:18:34;;;;;;;3.92;3.30;;;24.90;41.70;;;;;;4998384;28;20197;-79
2023/05/30 07:21:01;;;;;;;3.70;3.15;;;24.90;41.50;;;;;;4998569;28;20219;-78
2023/05/30 07:23:29;;;;;;;4.30;3.08;;;25.00;41.60;;;;;;4998419;28;20747;-78
2023/05/30 07:25:56;;;;;;;3.88;3.47;;;25.00;41.50;;;;;;5007739;28;20200;-78
2023/05/30 07:28:24;;;;;;;3.42;2.85;;;25.10;41.40;;;;;;5002065;28;20291;-78
2023/05/30 07:30:51;;;;;;;3.75;3.13;;;25.10;41.40;;;;;;5000749;28;20204;-78
2023/05/30 07:33:18;;;;;;;3.67;3.13;;;25.10;41.40;;;;;;5000483;28;20232;-78
2023/05/30 07:35:46;;;;;;;2.90;2.60;;;25.10;41.30;;;;;;5000296;28;20756;-78
2023/05/30 07:38:13;;;;;;;3.20;2.90;;;25.10;41.30;;;;;;5000505;28;20211;-78
2023/05/30 07:40:40;;;;;;;4.18;3.20;;;25.20;41.20;;;;;;5000600;28;20228;-78
2023/05/30 07:43:07;;;;;;;3.05;2.72;;;25.30;41.10;;;;;;5001679;28;20292;-78
2023/05/30 07:45:36;;;;;;;3.28;2.88;;;25.40;40.90;;;;;;5002436;28;20208;-78
2023/05/30 07:48:05;;;;;;;3.60;3.15;;;25.50;40.70;;;;;;5001795;28;20200;-78
2023/05/30 07:50:32;;;;;;;3.13;2.75;;;25.60;40.40;;;;;;5001377;28;20276;-78
2023/05/30 07:52:59;;;;;;;3.28;2.97;;;25.70;40.20;;;;;;5000514;28;20204;-78
2023/05/30 07:55:27;;;;;;;3.20;2.97;;;25.70;40.10;;;;;;5001000;28;20220;-78
2023/05/30 07:57:54;;;;;;;3.28;2.97;;;25.90;40.20;;;;;;5000814;28;20611;-78
2023/05/30 08:00:23;;;;;;;3.53;2.70;;;25.90;40.00;;;;;;5000668;28;20207;-78
2023/05/30 08:02:52;;;;;;;3.63;3.28;;;25.90;39.90;;;;;;4984598;28;20205;-78
2023/05/30 08:05:19;;;;;;;3.53;3.10;;;25.90;40.40;;;;;;4985094;28;20254;-78
2023/05/30 08:07:46;;;;;;;3.10;2.75;;;26.00;39.80;;;;;;4984387;28;20205;-78
2023/05/30 08:10:13;;;;;;;3.35;3.05;;;26.10;39.80;;;;;;5000992;28;20207;-78
2023/05/30 08:12:41;;;;;;;3.30;2.97;;;26.10;39.60;;;;;;5000685;28;20229;-78
2023/05/30 08:15:10;;;;;;;3.38;3.08;;;26.20;39.50;;;;;;4984331;28;20266;-78
2023/05/30 08:17:40;;;;;;;3.60;2.90;;;26.30;39.40;;;;;;5000249;28;20203;-78
2023/05/30 08:20:12;;;;;;;3.47;3.17;;;26.30;39.20;;;;;;5000808;28;20195;-78
2023/05/30 08:22:39;;;;;;;3.08;2.78;;;26.40;39.10;;;;;;5001315;28;20200;-78
2023/05/30 08:25:07;;;;;;;3.08;2.80;;;26.50;38.90;;;;;;5000183;28;20254;-78
2023/05/30 08:27:37;;;;;;;3.22;2.92;;;26.60;38.80;;;;;;5000899;28;20258;-77
2023/05/30 08:30:05;;;;;;;4.32;3.00;;;26.60;38.70;;;;;;4984826;28;20200;-77
2023/05/30 08:32:33;;;;;;;3.58;3.10;;;26.60;38.60;;;;;;5000580;28;20199;-79
2023/05/30 08:35:01;;;;;;;2.97;2.67;;;26.70;38.60;;;;;;5000419;28;20220;-78
2023/05/30 08:37:30;;;;;;;3.17;2.90;;;26.70;38.50;;;;;;5016492;28;20196;-78
2023/05/30 08:39:57;;;;;;;4.72;3.05;;;26.70;38.30;;;;;;4999434;28;20204;-78
2023/05/30 08:42:25;;;;;;;3.00;2.80;;;26.80;38.30;;;;;;4983289;28;20208;-78
2023/05/30 08:44:52;;;;;;;3.17;2.85;;;26.80;38.20;;;;;;4983363;28;20200;-78
2023/05/30 08:47:19;;;;;;;3.33;3.03;;;26.80;38.20;;;;;;4983666;28;20220;-78
2023/05/30 08:49:46;;;;;;;3.17;2.88;;;26.70;38.30;;;;;;4999721;28;20204;-78
2023/05/30 08:52:14;;;;;;;3.75;3.17;;;26.70;38.30;;;;;;4999717;28;20728;-78
2023/05/30 08:55:00;;;;;;;3.13;2.83;;;26.70;38.30;;;;;;4999809;28;20206;-78
2023/05/30 08:57:31;;;;;;;3.20;2.90;;;26.70;38.40;;;;;;4999793;28;20551;-78
2023/05/30 09:00:00;;;;;;;3.85;2.90;;;26.70;38.30;;;;;;4999800;28;20198;-78
2023/05/30 09:02:27;;;;;;;3.10;2.80;;;26.80;38.20;;;;;;4999852;28;20717;-78
2023/05/30 09:04:56;;;;;;;3.47;3.00;;;26.80;38.10;;;;;;4983902;28;20250;-78
2023/05/30 09:07:23;;;;;;;3.65;2.80;;;26.80;38.00;;;;;;4999951;28;20223;-78
2023/05/30 09:09:52;;;;;;;3.15;2.85;;;26.90;38.00;;;;;;4999358;28;20204;-78
2023/05/30 09:12:19;;;;;;;2.85;2.63;;;27.00;37.90;;;;;;4999468;28;20223;-78
2023/05/30 09:14:47;;;;;;;3.03;2.83;;;27.00;37.80;;;;;;4999218;28;20211;-78
2023/05/30 09:17:14;;;;;;;3.40;2.90;;;27.00;37.70;;;;;;4983497;28;20259;-78
2023/05/30 09:19:41;;;;;;;2.63;2.42;;;27.10;37.70;;;;;;4999643;28;20203;-78
2023/05/30 09:22:08;;;;;;;3.03;2.83;;;27.10;37.70;;;;;;4999315;28;20204;-78
2023/05/30 09:25:00;;;;;;;3.50;3.10;;;27.10;38.20;;;;;;4999305;28;20204;-78
2023/05/30 09:27:27;;;;;;;4.07;3.28;;;27.10;37.60;;;;;;5001361;28;20196;-78
2023/05/30 09:29:55;;;;;;;3.20;2.90;;;27.10;37.60;;;;;;4999693;28;20203;-78
2023/05/30 09:32:28;;;;;;;4.22;3.00;;;27.10;37.60;;;;;;4983313;28;20212;-78
2023/05/30 09:34:57;;;;;;;3.58;2.70;;;27.10;37.60;;;;;;4998679;28;20628;-78
2023/05/30 09:37:24;;;;;;;2.92;2.65;;;27.10;37.60;;;;;;4998399;28;20231;-78
2023/05/30 09:40:07;;;;;;;3.15;2.80;;;27.10;37.70;;;;;;4998299;28;20670;-78
2023/05/30 09:42:41;;;;;;;3.10;2.80;;;27.10;37.70;;;;;;4998450;28;20210;-78
2023/05/30 09:45:09;;;;;;;3.10;2.80;;;27.10;37.70;;;;;;4982482;28;20293;-78
2023/05/30 09:47:39;;;;;;;3.45;2.78;;;27.10;37.70;;;;;;4999473;28;20202;-78
2023/05/30 09:50:07;;;;;;;3.15;2.70;;;27.10;37.70;;;;;;5000602;28;20211;-78
2023/05/30 09:52:34;;;;;;;3.20;2.60;;;27.10;37.70;;;;;;5002430;28;20196;-78
2023/05/30 09:55:05;;;;;;;3.30;2.70;;;27.10;37.70;;;;;;5002374;28;20211;-78
2023/05/30 09:57:35;;;;;;;3.00;2.70;;;27.00;37.70;;;;;;5001618;28;20200;-78
2023/05/30 10:00:09;;;;;;;2.85;2.55;;;27.10;37.80;;;;;;4997896;28;20242;-78
2023/05/30 10:02:37;;;;;;;2.80;2.60;;;27.10;37.80;;;;;;5015499;28;20192;-78
2023/05/30 10:05:05;;;;;;;3.67;2.65;;;27.10;37.90;;;;;;4998026;28;20208;-78
2023/05/30 10:07:33;;;;;;;3.00;2.80;;;27.00;37.80;;;;;;5000810;28;20265;-78
2023/05/30 10:10:00;;;;;;;3.30;3.00;;;27.00;37.90;;;;;;5001379;28;20319;-78
2023/05/30 10:12:28;;;;;;;3.08;2.80;;;27.00;38.00;;;;;;5000291;28;20204;-78
2023/05/30 10:14:57;;;;;;;2.85;2.65;;;27.00;38.10;;;;;;4984553;28;20204;-78
2023/05/30 10:17:24;;;;;;;3.45;2.70;;;26.90;38.10;;;;;;4999701;28;20216;-78
2023/05/30 10:19:55;;;;;;;3.00;2.70;;;26.90;38.10;;;;;;4999886;28;20196;-78
2023/05/30 10:22:22;;;;;;;2.90;2.70;;;26.90;38.20;;;;;;5016384;28;20593;-78
2023/05/30 10:24:49;;;;;;;3.15;2.70;;;26.80;38.20;;;;;;4998020;28;20295;-78
2023/05/30 10:27:19;;;;;;;3.45;3.13;;;26.80;38.30;;;;;;4998113;28;20308;-78
2023/05/30 10:29:48;;;;;;;3.03;2.72;;;26.80;38.50;;;;;;4998194;28;20203;-78
2023/05/30 10:32:20;;;;;;;2.88;2.67;;;26.70;38.60;;;;;;4997918;28;20222;-78
2023/05/30 10:34:49;;;;;;;2.67;2.47;;;26.70;38.70;;;;;;4997654;28;20271;-78
2023/05/30 10:37:16;;;;;;;2.90;2.70;;;26.60;38.80;;;;;;4997318;28;20312;-78
2023/05/30 10:39:52;;;;;;;2.85;2.65;;;26.60;38.90;;;;;;4997927;28;20222;-78
2023/05/30 10:42:22;;;;;;;2.90;2.70;;;26.50;39.00;;;;;;4981880;28;20675;-78
2023/05/30 10:44:54;;;;;;;3.40;2.92;;;26.50;39.10;;;;;;4991165;28;20200;-78
2023/05/30 10:47:30;;;;;;;3.00;2.70;;;26.40;39.20;;;;;;4996769;28;20285;-78
2023/05/30 10:49:58;;;;;;;2.90;2.70;;;26.40;39.30;;;;;;4996604;28;20235;-78
2023/05/30 10:52:31;;;;;;;3.22;2.80;;;26.30;39.40;;;;;;4996525;28;20208;-78
2023/05/30 10:54:58;;;;;;;3.38;2.90;;;26.30;39.50;;;;;;4996203;28;20284;-79
2023/05/30 10:57:28;;;;;;;3.40;3.10;;;26.30;39.60;;;;;;4997481;28;20282;-79
2023/05/30 10:59:55;;;;;;;2.90;2.60;;;26.30;39.60;;;;;;4996140;28;20204;-79
2023/05/30 11:02:35;;;;;;;3.00;2.70;;;26.30;39.70;;;;;;4995957;28;20200;-79
2023/05/30 11:05:07;;;;;;;2.67;2.47;;;26.20;39.80;;;;;;4996270;28;20200;-79
2023/05/30 11:07:36;;;;;;;3.67;2.60;;;26.20;39.80;;;;;;4997340;28;20290;-79
2023/05/30 11:10:04;;;;;;;3.20;2.95;;;26.20;39.90;;;;;;4996090;28;20208;-79
2023/05/30 11:12:31;;;;;;;2.92;2.72;;;26.20;39.90;;;;;;4996523;28;20206;-79
2023/05/30 11:14:59;;;;;;;3.30;3.00;;;26.20;39.90;;;;;;4996256;28;20617;-79
2023/05/30 11:17:31;;;;;;;2.97;2.78;;;26.20;39.90;;;;;;4996452;28;20212;-79
2023/05/30 11:20:08;;;;;;;2.88;2.67;;;26.20;40.00;;;;;;4996110;28;20207;-78
2023/05/30 11:22:35;;;;;;;2.60;2.40;;;26.20;40.00;;;;;;4996170;28;20262;-78
2023/05/30 11:25:18;;;;;;;3.72;3.10;;;26.20;40.00;;;;;;4996713;28;20223;-78
2023/05/30 11:28:00;;;;;;;2.92;2.72;;;26.20;40.00;;;;;;4996577;28;20202;-78
2023/05/30 11:30:29;;;;;;;3.45;2.90;;;26.20;40.00;;;;;;4997523;28;20188;-78
2023/05/30 11:32:58;;;;;;;2.85;2.65;;;26.20;40.00;;;;;;4997808;28;20210;-78
2023/05/30 11:35:27;;;;;;;3.03;2.80;;;26.20;40.10;;;;;;4996717;28;20216;-78
2023/05/30 11:37:55;;;;;;;2.78;2.53;;;26.20;40.00;;;;;;4996801;28;20226;-78
2023/05/30 11:40:22;;;;;;;2.95;2.65;;;26.20;40.00;;;;;;4996129;28;20571;-78
2023/05/30 11:44:11;;;;;;;2.78;2.58;;;26.20;40.10;;;;;;5110940;27;21065;-50
2023/05/30 11:46:37;;;;;;;2.58;2.38;;;26.10;40.10;;;;;;5110982;28;20231;-50
2023/05/30 11:49:05;;;;;;;2.92;2.72;;;26.20;40.10;;;;;;5110812;28;20250;-51
2023/05/30 11:51:32;;;;;;;2.65;2.45;;;26.20;40.20;;;;;;5110854;28;20637;-50
2023/05/30 11:54:00;;;;;;;2.78;2.58;;;26.20;40.10;;;;;;5110818;28;20654;-50
2023/05/30 11:56:29;;;;;;;2.97;2.78;;;26.20;40.20;;;;;;5110834;28;20205;-50
2023/05/30 11:58:56;;;;;;;2.85;2.40;;;26.20;40.20;;;;;;5110754;28;20272;-50
2023/05/30 12:01:25;;;;;;;3.55;2.70;;;26.10;40.10;;;;;;5109313;28;20273;-50
2023/05/30 12:03:52;;;;;;;2.55;2.35;;;26.20;40.20;;;;;;5110561;28;20209;-50
2023/05/30 12:06:20;;;;;;;2.80;2.60;;;26.10;40.20;;;;;;5110146;28;20217;-50
2023/05/30 12:08:47;;;;;;;2.80;2.60;;;26.20;40.30;;;;;;5110549;28;20672;-50
2023/05/30 12:11:14;;;;;;;2.78;2.58;;;26.10;40.30;;;;;;5109083;28;20196;-50
2023/05/30 12:13:41;;;;;;;2.63;2.42;;;26.10;40.30;;;;;;5110403;28;20187;-50
2023/05/30 12:16:10;;;;;;;2.60;2.40;;;26.10;40.30;;;;;;5108932;28;20213;-50
2023/05/30 12:18:39;;;;;;;3.30;3.00;;;26.10;40.40;;;;;;5110282;28;20194;-50
2023/05/30 12:21:08;;;;;;;3.00;2.80;;;26.10;40.50;;;;;;5110354;28;20242;-50
2023/05/30 12:23:35;;;;;;;3.05;2.80;;;26.10;40.50;;;;;;5110255;28;20219;-51
2023/05/30 12:26:02;;;;;;;3.10;2.70;;;26.10;40.50;;;;;;5109936;28;20221;-51
2023/05/30 12:28:31;;;;;;;2.85;2.65;;;26.00;40.50;;;;;;5110194;28;20235;-50
2023/05/30 12:30:58;;;;;;;2.90;2.70;;;26.00;40.60;;;;;;5108885;28;20202;-51
2023/05/30 12:33:27;;;;;;;3.28;2.70;;;26.00;40.50;;;;;;5110053;28;20366;-50
2023/05/30 12:35:57;;;;;;;2.70;2.50;;;26.00;40.60;;;;;;5119798;22;20281;-78
2023/05/30 12:38:24;;;;;;;3.08;2.80;;;26.00;40.60;;;;;;5057494;28;20227;-77
2023/05/30 12:40:52;;;;;;;2.70;2.50;;;26.00;40.60;;;;;;5042150;28;20552;-77
2023/05/30 12:43:26;;;;;;;3.00;2.78;;;25.90;40.60;;;;;;5034420;28;20215;-77
2023/05/30 12:45:53;;;;;;;2.90;2.70;;;25.90;40.60;;;;;;5033917;28;20222;-77
2023/05/30 12:48:20;;;;;;;2.60;2.40;;;25.90;40.60;;;;;;5035210;28;20199;-78
2023/05/30 12:50:48;;;;;;;2.97;2.78;;;26.00;40.70;;;;;;5018179;28;20230;-78
2023/05/30 12:53:17;;;;;;;2.78;2.58;;;26.00;40.80;;;;;;5033500;28;20202;-78
2023/05/30 12:55:48;;;;;;;3.08;2.78;;;25.90;40.80;;;;;;5021104;28;20238;-78